createdAt,value
2018-04-17T00:00:23.386Z,98.41
2018-04-17T00:01:23.308Z,97.41
2018-04-17T00:02:23.257Z,97.56
2018-04-17T00:03:23.211Z,97.13
2018-04-17T00:04:23.163Z,97.60
2018-04-17T00:05:23.137Z,97.51
2018-04-17T00:06:23.067Z,98.18
2018-04-17T00:07:23.018Z,98.27
2018-04-17T00:08:22.971Z,99.08
2018-04-17T00:09:22.920Z,98.46
2018-04-17T00:10:22.905Z,99.03
2018-04-17T00:11:22.832Z,98.84
2018-04-17T00:12:22.782Z,99.41
2018-04-17T00:13:22.733Z,99.60
2018-04-17T00:14:22.683Z,98.74
2018-04-17T00:15:22.664Z,98.65
2018-04-17T00:16:22.589Z,98.27
2018-04-17T00:17:22.539Z,98.94
2018-04-17T00:18:22.493Z,99.03
2018-04-17T00:19:22.446Z,98.27
2018-04-17T00:20:22.422Z,97.51
2018-04-17T00:21:22.347Z,98.94
2018-04-17T00:22:22.306Z,99.03
2018-04-17T00:23:22.253Z,99.22
2018-04-17T00:24:22.205Z,98.65
2018-04-17T00:25:22.179Z,99.41
2018-04-17T00:26:22.110Z,99.98
2018-04-17T00:27:22.061Z,99.89
2018-04-17T00:28:22.012Z,99.99
2018-04-17T00:29:21.970Z,99.99
2018-04-17T00:30:21.949Z,99.89
2018-04-17T00:31:21.871Z,99.99
2018-04-17T00:32:21.859Z,99.99
2018-04-17T00:33:21.774Z,99.99
2018-04-17T00:34:21.729Z,99.99
2018-04-17T00:35:21.704Z,99.93
2018-04-17T00:36:21.634Z,99.99
2018-04-17T00:37:21.580Z,99.99
2018-04-17T00:38:21.537Z,99.99
2018-04-17T00:39:21.486Z,99.99
2018-04-17T00:40:21.461Z,99.84
2018-04-17T00:41:21.390Z,99.99
2018-04-17T00:42:21.350Z,99.99
2018-04-17T00:43:21.292Z,99.99
2018-04-17T00:44:21.258Z,99.99
2018-04-17T00:45:21.225Z,99.99
2018-04-17T00:46:21.150Z,99.99
2018-04-17T00:47:21.101Z,99.99
2018-04-17T00:48:21.057Z,99.99
2018-04-17T00:49:21.010Z,99.99
2018-04-17T00:50:20.985Z,99.99
2018-04-17T00:51:20.912Z,99.99
2018-04-17T00:52:20.866Z,99.99
2018-04-17T00:53:20.815Z,99.99
2018-04-17T00:54:20.767Z,99.99
2018-04-17T00:55:20.746Z,99.99
2018-04-17T00:56:20.674Z,99.99
2018-04-17T00:57:20.641Z,99.99
2018-04-17T00:58:20.575Z,99.99
2018-04-17T00:59:20.530Z,99.99
2018-04-17T01:00:20.506Z,99.99
2018-04-17T01:01:20.438Z,99.99
2018-04-17T01:02:20.382Z,99.99
2018-04-17T01:03:20.332Z,99.99
2018-04-17T01:04:20.290Z,99.99
2018-04-17T01:05:20.241Z,99.99
2018-04-17T01:06:20.212Z,99.99
2018-04-17T01:07:20.139Z,99.99
2018-04-17T01:08:20.094Z,99.99
2018-04-17T01:09:20.043Z,99.99
2018-04-17T01:10:19.995Z,99.99
2018-04-17T01:11:19.970Z,99.99
2018-04-17T01:12:19.902Z,99.99
2018-04-17T01:13:19.852Z,99.99
2018-04-17T01:14:19.805Z,99.99
2018-04-17T01:15:19.756Z,99.99
2018-04-17T01:16:19.730Z,99.99
2018-04-17T01:17:19.663Z,99.99
2018-04-17T01:18:19.618Z,99.99
2018-04-17T01:19:19.569Z,99.99
2018-04-17T01:20:19.512Z,99.99
2018-04-17T01:21:19.489Z,99.99
2018-04-17T01:22:19.417Z,99.99
2018-04-17T01:23:19.372Z,99.99
2018-04-17T01:24:19.328Z,99.99
2018-04-17T01:25:19.273Z,99.99
2018-04-17T01:26:19.249Z,99.99
2018-04-17T01:27:19.177Z,99.99
2018-04-17T01:28:19.133Z,99.99
2018-04-17T01:29:19.081Z,99.99
2018-04-17T01:30:19.029Z,99.99
2018-04-17T01:31:19.006Z,99.99
2018-04-17T01:32:18.950Z,99.99
2018-04-17T01:33:18.894Z,99.99
2018-04-17T01:34:18.837Z,99.99
2018-04-17T01:35:18.790Z,99.99
2018-04-17T01:36:18.762Z,99.99
2018-04-17T01:37:18.696Z,99.99
2018-04-17T01:38:18.643Z,99.99
2018-04-17T01:39:18.596Z,99.99
2018-04-17T01:40:18.551Z,99.99
2018-04-17T01:41:18.517Z,99.99
2018-04-17T01:42:18.447Z,99.99
2018-04-17T01:43:18.398Z,99.99
2018-04-17T01:44:18.350Z,99.99
2018-04-17T01:45:18.302Z,99.99
2018-04-17T01:46:18.279Z,99.99
2018-04-17T01:47:18.209Z,99.99
2018-04-17T01:48:18.156Z,99.99
2018-04-17T01:49:18.113Z,99.99
2018-04-17T01:50:18.067Z,99.99
2018-04-17T01:51:18.038Z,99.99
2018-04-17T01:52:17.965Z,99.99
2018-04-17T01:53:17.925Z,99.99
2018-04-17T01:54:17.866Z,99.99
2018-04-17T01:55:17.822Z,99.99
2018-04-17T01:56:17.795Z,99.99
2018-04-17T01:57:17.722Z,99.99
2018-04-17T01:58:17.674Z,99.99
2018-04-17T01:59:17.625Z,99.99
2018-04-17T02:00:17.575Z,99.99
2018-04-17T02:01:17.552Z,99.99
2018-04-17T02:02:17.492Z,99.99
2018-04-17T02:03:17.433Z,99.99
2018-04-17T02:04:17.385Z,99.99
2018-04-17T02:05:17.334Z,99.99
2018-04-17T02:06:17.310Z,99.99
2018-04-17T02:07:17.240Z,99.99
2018-04-17T02:08:17.190Z,99.99
2018-04-17T02:09:17.144Z,99.99
2018-04-17T02:10:17.091Z,99.99
2018-04-17T02:11:17.070Z,99.99
2018-04-17T02:12:17.003Z,99.99
2018-04-17T02:13:16.946Z,99.99
2018-04-17T02:14:16.897Z,99.99
2018-04-17T02:15:16.851Z,99.99
2018-04-17T02:16:16.825Z,99.99
2018-04-17T02:17:16.750Z,99.99
2018-04-17T02:18:16.703Z,99.99
2018-04-17T02:19:16.651Z,99.99
2018-04-17T02:20:16.605Z,99.99
2018-04-17T02:21:16.581Z,99.99
2018-04-17T02:22:16.511Z,99.99
2018-04-17T02:23:16.462Z,99.99
2018-04-17T02:24:16.408Z,99.99
2018-04-17T02:25:16.362Z,99.99
2018-04-17T02:26:16.337Z,99.99
2018-04-17T02:27:16.271Z,99.99
2018-04-17T02:28:16.220Z,99.99
2018-04-17T02:29:16.169Z,99.99
2018-04-17T02:30:16.119Z,99.99
2018-04-17T02:31:16.094Z,99.99
2018-04-17T02:32:16.021Z,99.99
2018-04-17T02:33:15.978Z,99.99
2018-04-17T02:34:15.927Z,99.99
2018-04-17T02:35:15.875Z,99.99
2018-04-17T02:36:15.851Z,99.99
2018-04-17T02:37:15.791Z,99.99
2018-04-17T02:38:15.731Z,99.99
2018-04-17T02:39:15.683Z,99.99
2018-04-17T02:40:15.631Z,99.99
2018-04-17T02:41:15.609Z,99.99
2018-04-17T02:42:15.537Z,99.99
2018-04-17T02:43:15.490Z,99.99
2018-04-17T02:44:15.437Z,99.99
2018-04-17T02:45:15.390Z,99.99
2018-04-17T02:46:15.362Z,99.99
2018-04-17T02:47:15.294Z,99.99
2018-04-17T02:48:15.240Z,99.99
2018-04-17T02:49:15.191Z,99.99
2018-04-17T02:50:15.144Z,99.99
2018-04-17T02:51:15.116Z,99.99
2018-04-17T02:52:15.044Z,99.99
2018-04-17T02:53:14.999Z,99.99
2018-04-17T02:54:14.974Z,99.99
2018-04-17T02:55:14.897Z,99.99
2018-04-17T02:56:14.874Z,99.99
2018-04-17T02:57:14.806Z,99.99
2018-04-17T02:58:14.750Z,99.99
2018-04-17T02:59:14.699Z,99.99
2018-04-17T03:00:14.658Z,99.99
2018-04-17T03:01:14.633Z,99.99
2018-04-17T03:02:14.555Z,99.99
2018-04-17T03:03:14.508Z,99.99
2018-04-17T03:04:14.457Z,99.99
2018-04-17T03:05:14.406Z,99.99
2018-04-17T03:06:14.385Z,99.99
2018-04-17T03:07:14.313Z,99.99
2018-04-17T03:08:14.260Z,99.99
2018-04-17T03:09:14.235Z,99.99
2018-04-17T03:10:14.162Z,99.99
2018-04-17T03:11:14.135Z,99.99
2018-04-17T03:12:14.069Z,99.99
2018-04-17T03:13:14.016Z,99.99
2018-04-17T03:14:13.969Z,99.99
2018-04-17T03:15:13.925Z,99.99
2018-04-17T03:16:13.894Z,99.99
2018-04-17T03:17:13.823Z,99.99
2018-04-17T03:18:13.774Z,99.99
2018-04-17T03:19:13.721Z,99.99
2018-04-17T03:20:13.675Z,99.99
2018-04-17T03:21:13.650Z,99.99
2018-04-17T03:22:13.577Z,99.99
2018-04-17T03:23:13.530Z,99.99
2018-04-17T03:24:13.482Z,99.99
2018-04-17T03:25:13.428Z,99.99
2018-04-17T03:26:13.410Z,99.99
2018-04-17T03:27:13.331Z,99.99
2018-04-17T03:28:13.287Z,99.99
2018-04-17T03:29:20.384Z,99.99
2018-04-17T03:30:13.189Z,99.99
2018-04-17T03:31:13.159Z,99.99
2018-04-17T03:32:13.086Z,99.99
2018-04-17T03:33:13.037Z,99.99
2018-04-17T03:34:12.992Z,99.99
2018-04-17T03:35:12.938Z,99.99
2018-04-17T03:36:12.919Z,99.99
2018-04-17T03:37:12.849Z,99.99
2018-04-17T03:38:12.823Z,99.99
2018-04-17T03:39:12.748Z,99.99
2018-04-17T03:40:12.694Z,99.99
2018-04-17T03:41:12.673Z,99.99
2018-04-17T03:42:12.596Z,99.99
2018-04-17T03:43:12.547Z,99.99
2018-04-17T03:44:12.498Z,99.99
2018-04-17T03:45:12.459Z,99.99
2018-04-17T03:46:12.433Z,99.99
2018-04-17T03:47:12.351Z,99.99
2018-04-17T03:48:12.307Z,99.99
2018-04-17T03:49:12.254Z,99.99
2018-04-17T03:50:12.209Z,99.99
2018-04-17T03:51:12.186Z,99.99
2018-04-17T03:52:12.108Z,99.99
2018-04-17T03:53:12.060Z,99.99
2018-04-17T03:54:12.007Z,99.99
2018-04-17T03:55:11.961Z,99.99
2018-04-17T03:56:11.931Z,99.99
2018-04-17T03:57:11.860Z,99.99
2018-04-17T03:58:11.812Z,99.99
2018-04-17T03:59:11.762Z,99.99
2018-04-17T04:00:11.714Z,99.99
2018-04-17T04:01:11.666Z,99.99
2018-04-17T04:02:11.641Z,99.99
2018-04-17T04:03:11.571Z,99.99
2018-04-17T04:04:11.523Z,99.99
2018-04-17T04:05:11.470Z,99.99
2018-04-17T04:06:11.421Z,99.99
2018-04-17T04:07:11.398Z,99.99
2018-04-17T04:08:11.327Z,99.99
2018-04-17T04:09:11.278Z,99.99
2018-04-17T04:10:11.230Z,99.99
2018-04-17T04:11:11.175Z,99.99
2018-04-17T04:12:11.147Z,99.99
2018-04-17T04:13:11.076Z,99.99
2018-04-17T04:14:11.027Z,99.99
2018-04-17T04:15:10.980Z,99.99
2018-04-17T04:16:10.971Z,99.99
2018-04-17T04:17:10.902Z,99.99
2018-04-17T04:18:10.832Z,99.99
2018-04-17T04:19:10.793Z,99.99
2018-04-17T04:20:10.734Z,99.99
2018-04-17T04:21:10.687Z,99.99
2018-04-17T04:22:10.660Z,99.99
2018-04-17T04:23:10.587Z,99.99
2018-04-17T04:24:10.542Z,99.99
2018-04-17T04:25:10.487Z,99.99
2018-04-17T04:26:10.443Z,99.99
2018-04-17T04:27:10.409Z,99.99
2018-04-17T04:28:10.338Z,99.99
2018-04-17T04:29:10.293Z,99.99
2018-04-17T04:30:10.245Z,99.99
2018-04-17T04:31:10.194Z,99.99
2018-04-17T04:32:10.165Z,99.99
2018-04-17T04:33:10.098Z,99.99
2018-04-17T04:34:10.083Z,99.99
2018-04-17T04:35:09.999Z,99.99
2018-04-17T04:36:09.949Z,99.99
2018-04-17T04:37:09.930Z,99.99
2018-04-17T04:38:09.850Z,99.99
2018-04-17T04:39:09.801Z,99.99
2018-04-17T04:40:09.750Z,99.99
2018-04-17T04:41:09.704Z,99.99
2018-04-17T04:42:09.677Z,99.99
2018-04-17T04:43:09.602Z,99.99
2018-04-17T04:44:09.556Z,99.99
2018-04-17T04:45:09.511Z,99.99
2018-04-17T04:46:09.461Z,99.99
2018-04-17T04:47:09.434Z,99.99
2018-04-17T04:48:09.362Z,99.99
2018-04-17T04:49:09.309Z,99.99
2018-04-17T04:50:09.261Z,99.99
2018-04-17T04:51:09.216Z,99.99
2018-04-17T04:52:09.215Z,99.99
2018-04-17T04:53:09.113Z,99.99
2018-04-17T04:54:09.066Z,99.99
2018-04-17T04:55:09.013Z,99.99
2018-04-17T04:56:08.968Z,99.99
2018-04-17T04:57:08.949Z,99.99
2018-04-17T04:58:08.871Z,99.99
2018-04-17T04:59:08.818Z,99.99
2018-04-17T05:00:08.774Z,99.99
2018-04-17T05:01:08.724Z,99.99
2018-04-17T05:02:08.673Z,99.99
2018-04-17T05:03:08.647Z,99.99
2018-04-17T05:04:08.576Z,99.99
2018-04-17T05:05:08.528Z,99.99
2018-04-17T05:06:08.482Z,99.99
2018-04-17T05:07:08.427Z,99.99
2018-04-17T05:08:08.408Z,99.99
2018-04-17T05:09:08.333Z,99.99
2018-04-17T05:10:08.280Z,99.99
2018-04-17T05:11:08.232Z,99.99
2018-04-17T05:12:08.212Z,99.99
2018-04-17T05:13:08.166Z,99.99
2018-04-17T05:14:08.088Z,99.99
2018-04-17T05:15:08.038Z,99.99
2018-04-17T05:16:07.990Z,99.99
2018-04-17T05:17:07.939Z,99.99
2018-04-17T05:18:07.917Z,99.99
2018-04-17T05:19:07.841Z,99.99
2018-04-17T05:20:07.796Z,99.99
2018-04-17T05:21:07.750Z,99.99
2018-04-17T05:22:07.698Z,99.99
2018-04-17T05:23:07.670Z,99.99
2018-04-17T05:24:07.600Z,99.99
2018-04-17T05:25:07.549Z,99.99
2018-04-17T05:26:07.501Z,99.99
2018-04-17T05:27:07.456Z,99.99
2018-04-17T05:28:07.426Z,99.99
2018-04-17T05:29:07.355Z,99.99
2018-04-17T05:30:07.305Z,99.99
2018-04-17T05:31:07.266Z,99.99
2018-04-17T05:32:07.207Z,99.99
2018-04-17T05:33:07.182Z,99.99
2018-04-17T05:34:07.116Z,99.99
2018-04-17T05:35:07.084Z,99.99
2018-04-17T05:36:07.012Z,99.99
2018-04-17T05:37:06.963Z,99.99
2018-04-17T05:38:06.938Z,99.99
2018-04-17T05:39:06.867Z,99.99
2018-04-17T05:40:06.857Z,99.99
2018-04-17T05:41:06.772Z,99.99
2018-04-17T05:42:06.722Z,99.99
2018-04-17T05:43:06.698Z,99.99
2018-04-17T05:44:06.629Z,99.99
2018-04-17T05:45:06.578Z,99.99
2018-04-17T05:46:06.528Z,99.99
2018-04-17T05:47:06.483Z,99.99
2018-04-17T05:48:06.457Z,99.99
2018-04-17T05:49:06.395Z,99.99
2018-04-17T05:50:06.337Z,99.99
2018-04-17T05:51:06.293Z,99.99
2018-04-17T05:52:06.268Z,99.99
2018-04-17T05:53:06.216Z,99.99
2018-04-17T05:54:06.152Z,99.99
2018-04-17T05:55:06.097Z,99.99
2018-04-17T05:56:06.050Z,99.99
2018-04-17T05:57:06.003Z,99.99
2018-04-17T05:58:05.976Z,99.75
2018-04-17T05:59:05.905Z,99.75
2018-04-17T06:00:05.857Z,99.37
2018-04-17T06:01:05.814Z,99.13
2018-04-17T06:02:05.761Z,98.85
2018-04-17T06:03:05.736Z,98.46
2018-04-17T06:04:05.671Z,98.56
2018-04-17T06:05:05.625Z,97.41
2018-04-17T06:06:05.571Z,97.22
2018-04-17T06:07:05.526Z,97.61
2018-04-17T06:08:05.505Z,97.85
2018-04-17T06:09:05.432Z,96.51
2018-04-17T06:10:05.415Z,96.89
2018-04-17T06:11:05.336Z,96.03
2018-04-17T06:12:05.291Z,96.13
2018-04-17T06:13:06.507Z,95.56
2018-04-17T06:14:05.203Z,94.79
2018-04-17T06:15:05.149Z,94.41
2018-04-17T06:16:05.103Z,94.07
2018-04-17T06:17:05.052Z,93.88
2018-04-17T06:18:05.029Z,94.07
2018-04-17T06:19:04.961Z,94.17
2018-04-17T06:20:04.912Z,94.07
2018-04-17T06:21:04.868Z,93.51
2018-04-17T06:22:04.821Z,93.41
2018-04-17T06:23:04.797Z,91.88
2018-04-17T06:24:04.743Z,92.26
2018-04-17T06:25:04.678Z,92.36
2018-04-17T06:26:04.652Z,92.36
2018-04-17T06:27:04.588Z,92.26
2018-04-17T06:28:04.567Z,91.50
2018-04-17T06:29:04.491Z,91.93
2018-04-17T06:30:04.448Z,91.83
2018-04-17T06:31:04.402Z,92.02
2018-04-17T06:32:04.355Z,91.26
2018-04-17T06:33:04.333Z,91.45
2018-04-17T06:34:04.261Z,91.16
2018-04-17T06:35:04.236Z,91.21
2018-04-17T06:36:04.166Z,90.25
2018-04-17T06:37:04.125Z,88.54
2018-04-17T06:38:04.096Z,88.82
2018-04-17T06:39:04.030Z,89.78
2018-04-17T06:40:03.985Z,90.06
2018-04-17T06:41:03.937Z,90.64
2018-04-17T06:42:03.919Z,90.25
2018-04-17T06:43:03.866Z,89.68
2018-04-17T06:44:03.800Z,89.01
2018-04-17T06:45:03.761Z,88.39
2018-04-17T06:46:03.708Z,89.06
2018-04-17T06:47:03.659Z,88.87
2018-04-17T06:48:03.639Z,88.58
2018-04-17T06:49:03.567Z,87.82
2018-04-17T06:50:03.527Z,87.43
2018-04-17T06:51:03.475Z,86.57
2018-04-17T06:52:03.426Z,86.47
2018-04-17T06:53:03.408Z,86.57
2018-04-17T06:54:03.340Z,86.67
2018-04-17T06:55:03.290Z,87.15
2018-04-17T06:56:03.251Z,87.57
2018-04-17T06:57:03.208Z,86.14
2018-04-17T06:58:03.213Z,86.23
2018-04-17T06:59:03.112Z,84.95
2018-04-17T07:00:03.068Z,85.71
2018-04-17T07:01:03.016Z,85.33
2018-04-17T07:02:02.971Z,85.52
2018-04-17T07:03:02.973Z,86.00
2018-04-17T07:04:02.885Z,86.67
2018-04-17T07:05:02.834Z,86.86
2018-04-17T07:06:02.806Z,85.96
2018-04-17T07:07:02.744Z,87.34
2018-04-17T07:08:02.723Z,87.58
2018-04-17T07:09:02.651Z,88.10
2018-04-17T07:10:02.608Z,87.62
2018-04-17T07:11:02.557Z,88.10
2018-04-17T07:12:02.517Z,87.29
2018-04-17T07:13:02.493Z,88.15
2018-04-17T07:14:02.424Z,87.57
2018-04-17T07:15:02.387Z,87.66
2018-04-17T07:16:02.334Z,85.75
2018-04-17T07:17:02.330Z,85.09
2018-04-17T07:18:02.269Z,84.89
2018-04-17T07:19:02.198Z,85.75
2018-04-17T07:20:02.152Z,85.94
2018-04-17T07:21:02.107Z,86.10
2018-04-17T07:22:02.063Z,85.81
2018-04-17T07:23:02.037Z,86.00
2018-04-17T07:24:01.970Z,86.61
2018-04-17T07:25:01.923Z,87.57
2018-04-17T07:26:01.882Z,87.38
2018-04-17T07:27:01.836Z,86.71
2018-04-17T07:28:01.814Z,85.57
2018-04-17T07:29:01.752Z,86.23
2018-04-17T07:30:01.695Z,86.33
2018-04-17T07:31:01.651Z,85.09
2018-04-17T07:32:01.610Z,84.89
2018-04-17T07:33:01.594Z,85.66
2018-04-17T07:34:01.517Z,85.80
2018-04-17T07:35:01.469Z,85.22
2018-04-17T07:36:01.428Z,85.61
2018-04-17T07:37:01.383Z,84.46
2018-04-17T07:38:01.365Z,85.41
2018-04-17T07:39:01.291Z,85.41
2018-04-17T07:40:01.243Z,85.09
2018-04-17T07:41:01.201Z,84.23
2018-04-17T07:42:01.154Z,84.70
2018-04-17T07:43:01.129Z,84.99
2018-04-17T07:44:01.062Z,84.89
2018-04-17T07:45:01.050Z,84.32
2018-04-17T07:46:00.973Z,85.28
2018-04-17T07:47:00.927Z,84.89
2018-04-17T07:48:00.925Z,85.28
2018-04-17T07:49:00.836Z,85.66
2018-04-17T07:50:00.792Z,85.57
2018-04-17T07:51:00.742Z,85.38
2018-04-17T07:52:00.702Z,85.28
2018-04-17T07:53:00.651Z,84.89
2018-04-17T07:54:00.633Z,86.71
2018-04-17T07:55:00.562Z,88.34
2018-04-17T07:56:00.519Z,88.09
2018-04-17T07:57:00.475Z,87.43
2018-04-17T07:58:00.426Z,86.94
2018-04-17T07:59:00.409Z,85.71
2018-04-17T08:00:00.337Z,84.65
2018-04-17T08:01:00.297Z,83.64
2018-04-17T08:02:00.246Z,84.65
2018-04-17T08:03:00.205Z,85.46
2018-04-17T08:04:00.187Z,84.69
2018-04-17T08:05:00.120Z,85.46
2018-04-17T08:06:00.066Z,85.17
2018-04-17T08:07:00.021Z,83.64
2018-04-17T08:07:59.975Z,83.73
2018-04-17T08:08:59.954Z,83.73
2018-04-17T08:09:59.886Z,83.78
2018-04-17T08:10:59.837Z,83.45
2018-04-17T08:11:59.800Z,81.82
2018-04-17T08:12:59.750Z,82.40
2018-04-17T08:13:59.741Z,84.35
2018-04-17T08:14:59.656Z,85.60
2018-04-17T08:15:59.617Z,84.06
2018-04-17T08:16:59.567Z,84.06
2018-04-17T08:17:59.531Z,84.16
2018-04-17T08:18:59.504Z,83.49
2018-04-17T08:19:59.432Z,83.30
2018-04-17T08:20:59.390Z,84.39
2018-04-17T08:21:59.346Z,82.67
2018-04-17T08:22:59.304Z,79.99
2018-04-17T08:23:59.278Z,79.28
2018-04-17T08:24:59.211Z,80.33
2018-04-17T08:25:59.169Z,80.24
2018-04-17T08:26:59.127Z,80.04
2018-04-17T08:27:59.082Z,80.62
2018-04-17T08:28:59.053Z,80.43
2018-04-17T08:29:58.989Z,81.57
2018-04-17T08:30:58.945Z,81.38
2018-04-17T08:31:58.901Z,82.82
2018-04-17T08:32:58.858Z,82.92
2018-04-17T08:33:58.834Z,81.57
2018-04-17T08:34:58.768Z,80.37
2018-04-17T08:35:58.722Z,81.33
2018-04-17T08:36:58.704Z,83.15
2018-04-17T08:37:58.637Z,81.52
2018-04-17T08:38:58.610Z,80.18
2018-04-17T08:39:58.542Z,79.13
2018-04-17T08:40:58.497Z,79.80
2018-04-17T08:41:58.454Z,80.89
2018-04-17T08:42:58.405Z,79.07
2018-04-17T08:43:58.387Z,79.36
2018-04-17T08:44:58.320Z,80.89
2018-04-17T08:45:58.275Z,80.79
2018-04-17T08:46:58.228Z,78.55
2018-04-17T08:47:58.185Z,78.97
2018-04-17T08:48:58.197Z,79.13
2018-04-17T08:49:58.096Z,79.70
2018-04-17T08:50:58.049Z,80.89
2018-04-17T08:51:58.004Z,80.76
2018-04-17T08:52:57.968Z,79.32
2018-04-17T08:53:57.942Z,78.49
2018-04-17T08:54:57.874Z,79.64
2018-04-17T08:55:57.829Z,79.93
2018-04-17T08:56:57.785Z,79.74
2018-04-17T08:57:57.740Z,77.82
2018-04-17T08:58:57.723Z,78.78
2018-04-17T08:59:57.652Z,79.07
2018-04-17T09:00:57.608Z,76.67
2018-04-17T09:01:57.563Z,76.00
2018-04-17T09:02:57.518Z,76.77
2018-04-17T09:03:57.496Z,78.20
2018-04-17T09:04:57.432Z,79.36
2018-04-17T09:05:57.385Z,80.16
2018-04-17T09:06:57.341Z,78.82
2018-04-17T09:07:57.302Z,77.95
2018-04-17T09:08:57.274Z,76.71
2018-04-17T09:09:57.206Z,75.46
2018-04-17T09:10:57.167Z,76.32
2018-04-17T09:11:57.131Z,73.55
2018-04-17T09:12:57.076Z,74.51
2018-04-17T09:13:57.055Z,73.45
2018-04-17T09:14:56.985Z,72.68
2018-04-17T09:15:56.943Z,73.93
2018-04-17T09:16:56.899Z,75.75
2018-04-17T09:17:56.853Z,75.27
2018-04-17T09:18:56.836Z,72.39
2018-04-17T09:19:56.765Z,72.39
2018-04-17T09:20:56.752Z,73.65
2018-04-17T09:21:56.678Z,71.44
2018-04-17T09:22:56.635Z,72.20
2018-04-17T09:23:56.670Z,74.12
2018-04-17T09:24:56.546Z,73.45
2018-04-17T09:25:56.500Z,72.97
2018-04-17T09:26:56.459Z,74.12
2018-04-17T09:27:56.414Z,74.89
2018-04-17T09:28:56.390Z,75.65
2018-04-17T09:29:56.329Z,77.09
2018-04-17T09:30:56.279Z,75.37
2018-04-17T09:31:56.242Z,73.83
2018-04-17T09:32:56.194Z,73.74
2018-04-17T09:33:56.171Z,73.35
2018-04-17T09:34:56.103Z,71.66
2018-04-17T09:35:56.095Z,70.80
2018-04-17T09:36:56.019Z,69.46
2018-04-17T09:37:56.001Z,68.79
2018-04-17T09:38:55.955Z,69.17
2018-04-17T09:39:55.889Z,70.32
2018-04-17T09:40:55.840Z,65.72
2018-04-17T09:41:55.795Z,64.76
2018-04-17T09:42:55.751Z,65.81
2018-04-17T09:43:55.706Z,66.52
2018-04-17T09:44:55.688Z,67.00
2018-04-17T09:45:55.621Z,68.63
2018-04-17T09:46:55.574Z,66.33
2018-04-17T09:47:55.531Z,67.86
2018-04-17T09:48:55.489Z,65.65
2018-04-17T09:49:55.508Z,68.05
2018-04-17T09:50:55.400Z,68.34
2018-04-17T09:51:55.355Z,66.90
2018-04-17T09:52:55.316Z,66.42
2018-04-17T09:53:55.272Z,65.84
2018-04-17T09:54:55.247Z,66.71
2018-04-17T09:55:55.184Z,66.07
2018-04-17T09:56:55.139Z,64.98
2018-04-17T09:57:55.095Z,64.89
2018-04-17T09:58:55.051Z,66.33
2018-04-17T09:59:55.031Z,66.90
2018-04-17T10:00:54.969Z,66.71
2018-04-17T10:01:54.924Z,65.65
2018-04-17T10:02:54.879Z,65.75
2018-04-17T10:03:54.838Z,66.46
2018-04-17T10:04:54.818Z,65.49
2018-04-17T10:05:54.750Z,65.20
2018-04-17T10:06:54.708Z,64.15
2018-04-17T10:07:54.672Z,65.78
2018-04-17T10:08:54.686Z,63.38
2018-04-17T10:09:54.598Z,62.61
2018-04-17T10:10:54.531Z,60.50
2018-04-17T10:11:54.489Z,60.88
2018-04-17T10:12:54.465Z,61.27
2018-04-17T10:13:54.403Z,62.99
2018-04-17T10:14:54.385Z,61.65
2018-04-17T10:15:54.318Z,59.92
2018-04-17T10:16:54.272Z,60.95
2018-04-17T10:17:54.230Z,64.50
2018-04-17T10:18:54.188Z,62.81
2018-04-17T10:19:54.170Z,61.91
2018-04-17T10:20:54.103Z,62.42
2018-04-17T10:21:54.058Z,61.94
2018-04-17T10:22:54.016Z,59.92
2018-04-17T10:23:53.972Z,61.55
2018-04-17T10:24:53.955Z,61.17
2018-04-17T10:25:53.888Z,61.17
2018-04-17T10:26:53.845Z,61.46
2018-04-17T10:27:53.806Z,62.81
2018-04-17T10:28:53.763Z,61.94
2018-04-17T10:29:53.783Z,61.75
2018-04-17T10:30:53.675Z,64.53
2018-04-17T10:31:53.631Z,64.25
2018-04-17T10:32:53.584Z,63.02
2018-04-17T10:33:53.545Z,63.32
2018-04-17T10:34:53.526Z,63.41
2018-04-17T10:35:53.458Z,59.47
2018-04-17T10:36:53.411Z,57.93
2018-04-17T10:37:53.375Z,55.82
2018-04-17T10:38:53.325Z,56.18
2018-04-17T10:39:53.306Z,57.90
2018-04-17T10:40:53.244Z,56.76
2018-04-17T10:41:53.201Z,56.85
2018-04-17T10:42:53.157Z,58.29
2018-04-17T10:43:53.115Z,56.37
2018-04-17T10:44:53.096Z,58.48
2018-04-17T10:45:53.027Z,58.39
2018-04-17T10:46:52.982Z,58.10
2018-04-17T10:47:52.940Z,57.62
2018-04-17T10:48:52.900Z,58.58
2018-04-17T10:49:52.882Z,59.34
2018-04-17T10:50:52.809Z,58.87
2018-04-17T10:51:52.770Z,59.64
2018-04-17T10:52:52.732Z,58.39
2018-04-17T10:53:52.701Z,58.48
2018-04-17T10:54:52.659Z,58.87
2018-04-17T10:55:52.594Z,60.50
2018-04-17T10:56:52.553Z,59.64
2018-04-17T10:57:52.512Z,59.47
2018-04-17T10:58:52.468Z,61.40
2018-04-17T10:59:52.444Z,59.38
2018-04-17T11:00:52.382Z,57.65
2018-04-17T11:01:52.335Z,58.80
2018-04-17T11:02:52.291Z,57.93
2018-04-17T11:03:52.248Z,55.24
2018-04-17T11:04:52.252Z,56.30
2018-04-17T11:05:52.160Z,56.30
2018-04-17T11:06:52.118Z,56.78
2018-04-17T11:07:52.081Z,60.24
2018-04-17T11:08:52.030Z,58.51
2018-04-17T11:09:52.015Z,57.07
2018-04-17T11:10:51.947Z,57.84
2018-04-17T11:11:51.902Z,57.07
2018-04-17T11:12:51.864Z,58.61
2018-04-17T11:13:51.817Z,55.73
2018-04-17T11:14:51.797Z,55.05
2018-04-17T11:15:51.727Z,58.13
2018-04-17T11:16:51.688Z,61.01
2018-04-17T11:17:51.641Z,59.47
2018-04-17T11:18:51.600Z,59.28
2018-04-17T11:19:51.581Z,56.59
2018-04-17T11:20:51.516Z,56.68
2018-04-17T11:21:51.472Z,58.51
2018-04-17T11:22:51.425Z,60.05
2018-04-17T11:23:51.382Z,58.51
2018-04-17T11:24:51.363Z,57.55
2018-04-17T11:25:51.299Z,57.77
2018-04-17T11:26:51.252Z,58.83
2018-04-17T11:27:51.211Z,58.35
2018-04-17T11:28:51.171Z,58.54
2018-04-17T11:29:51.147Z,58.64
2018-04-17T11:30:51.081Z,58.73
2018-04-17T11:31:51.038Z,57.68
2018-04-17T11:32:50.995Z,55.76
2018-04-17T11:33:50.951Z,56.52
2018-04-17T11:34:50.930Z,57.20
2018-04-17T11:35:50.863Z,58.64
2018-04-17T11:36:50.826Z,58.73
2018-04-17T11:37:50.780Z,57.87
2018-04-17T11:38:50.735Z,58.64
2018-04-17T11:39:50.720Z,59.31
2018-04-17T11:40:50.650Z,57.10
2018-04-17T11:41:50.609Z,57.10
2018-04-17T11:42:50.567Z,57.29
2018-04-17T11:43:50.522Z,57.87
2018-04-17T11:44:50.500Z,59.02
2018-04-17T11:45:50.435Z,59.79
2018-04-17T11:46:50.398Z,55.76
2018-04-17T11:47:50.348Z,56.91
2018-04-17T11:48:50.308Z,57.87
2018-04-17T11:49:50.287Z,59.12
2018-04-17T11:50:50.221Z,58.35
2018-04-17T11:51:50.179Z,58.64
2018-04-17T11:52:50.136Z,58.18
2018-04-17T11:53:50.102Z,57.13
2018-04-17T11:54:50.076Z,57.22
2018-04-17T11:55:50.012Z,56.07
2018-04-17T11:56:49.965Z,55.98
2018-04-17T11:57:49.926Z,57.99
2018-04-17T11:58:49.880Z,57.13
2018-04-17T11:59:49.862Z,57.68
2018-04-17T12:00:49.793Z,57.13
2018-04-17T12:01:49.750Z,59.44
2018-04-17T12:02:49.709Z,58.47
2018-04-17T12:03:49.664Z,57.70
2018-04-17T12:04:49.648Z,58.67
2018-04-17T12:05:49.580Z,55.68
2018-04-17T12:06:49.535Z,54.14
2018-04-17T12:07:49.498Z,54.79
2018-04-17T12:08:49.450Z,56.07
2018-04-17T12:09:49.432Z,59.34
2018-04-17T12:10:49.360Z,57.70
2018-04-17T12:11:49.324Z,56.84
2018-04-17T12:12:49.279Z,55.78
2018-04-17T12:13:49.244Z,57.03
2018-04-17T12:14:49.217Z,56.45
2018-04-17T12:15:49.154Z,55.11
2018-04-17T12:16:49.111Z,56.16
2018-04-17T12:17:49.067Z,56.16
2018-04-17T12:18:49.023Z,57.42
2018-04-17T12:19:49.001Z,56.84
2018-04-17T12:20:48.939Z,55.40
2018-04-17T12:21:48.895Z,56.16
2018-04-17T12:22:48.851Z,58.57
2018-04-17T12:23:48.809Z,57.60
2018-04-17T12:24:48.789Z,58.57
2018-04-17T12:25:48.766Z,56.74
2018-04-17T12:26:48.679Z,56.36
2018-04-17T12:27:48.635Z,55.40
2018-04-17T12:28:48.593Z,55.98
2018-04-17T12:29:48.576Z,56.65
2018-04-17T12:30:48.506Z,55.49
2018-04-17T12:31:48.469Z,56.16
2018-04-17T12:32:48.423Z,56.84
2018-04-17T12:33:48.381Z,56.16
2018-04-17T12:34:48.379Z,55.68
2018-04-17T12:35:48.296Z,54.46
2018-04-17T12:36:48.290Z,54.17
2018-04-17T12:37:48.212Z,54.56
2018-04-17T12:38:48.170Z,53.88
2018-04-17T12:39:48.127Z,54.65
2018-04-17T12:40:48.111Z,55.13
2018-04-17T12:41:48.038Z,55.33
2018-04-17T12:42:47.993Z,55.13
2018-04-17T12:43:47.950Z,54.36
2018-04-17T12:44:47.911Z,54.36
2018-04-17T12:45:47.888Z,55.33
2018-04-17T12:46:47.822Z,54.94
2018-04-17T12:47:47.778Z,53.96
2018-04-17T12:48:47.735Z,54.34
2018-04-17T12:49:47.693Z,56.45
2018-04-17T12:50:47.670Z,56.26
2018-04-17T12:51:47.607Z,55.49